Terminal Aerodrome Forecast
Issued by NWS Mt. Holly, NJ

Home | Current Version | Previous Version | Text Only | Print | Product List | Glossary On
Versions: 1 2 3 4 5 6 7 8 9 10 11 12 13 14 15 16 17 18 19
204
FTUS41 KPHI 281120
TAFTTN
TAF
KTTN 281120Z 2812/2912 03004KT 3SM BR OVC003
      TEMPO 2812/2813 2SM BR
     FM281300 04004KT P6SM OVC007
     FM281400 05005KT P6SM BKN015
     FM281600 08006KT P6SM SCT025
     FM282300 10006KT P6SM VCSH OVC035 PROB30 2900/2903 5SM -TSRA
      OVC030CB
     FM290300 06007KT 3SM SHRA OVC015 PROB30 2903/2906 2SM TSRA
      OVC025CB
     FM290900 03009KT 6SM BR BKN035=

USA.gov is the U.S. government's official web portal to all federal, state and local government web resources and services.